createdAt,value
2018-12-26T00:00:00.854Z,-0.70
2018-12-26T00:02:28.910Z,-0.70
2018-12-26T00:04:59.144Z,-0.80
2018-12-26T00:07:27.321Z,-0.80
2018-12-26T00:09:55.526Z,-0.70
2018-12-26T00:12:25.914Z,-0.70
2018-12-26T00:14:54.106Z,-0.70
2018-12-26T00:17:22.251Z,-0.70
2018-12-26T00:19:50.360Z,-0.70
2018-12-26T00:22:18.542Z,-0.70
2018-12-26T00:24:46.663Z,-0.70
2018-12-26T00:27:14.758Z,-0.70
2018-12-26T00:29:42.892Z,-0.70
2018-12-26T00:32:10.963Z,-0.70
2018-12-26T00:34:39.098Z,-0.80
2018-12-26T00:37:07.203Z,-0.90
2018-12-26T00:39:35.346Z,-0.90
2018-12-26T00:42:03.461Z,-0.90
2018-12-26T00:44:31.590Z,-0.80
2018-12-26T00:46:59.790Z,-0.90
2018-12-26T00:49:27.934Z,-0.90
2018-12-26T00:51:56.074Z,-0.90
2018-12-26T00:54:24.159Z,-1.00
2018-12-26T00:56:52.838Z,-1.00
2018-12-26T00:59:20.940Z,-1.00
2018-12-26T01:01:49.073Z,-1.00
2018-12-26T01:04:17.447Z,-1.00
2018-12-26T01:06:45.621Z,-1.10
2018-12-26T01:09:13.716Z,-1.10
2018-12-26T01:11:41.939Z,-1.00
2018-12-26T01:14:10.110Z,-1.10
2018-12-26T01:16:38.171Z,-1.10
2018-12-26T01:19:06.260Z,-1.10
2018-12-26T01:21:34.420Z,-1.10
2018-12-26T01:24:02.576Z,-1.00
2018-12-26T01:26:31.890Z,-1.00
2018-12-26T01:29:00.054Z,-1.00
2018-12-26T01:31:28.296Z,-1.10
2018-12-26T01:33:56.404Z,-1.10
2018-12-26T01:36:24.966Z,-1.20
2018-12-26T01:38:53.124Z,-1.20
2018-12-26T01:41:21.249Z,-1.20
2018-12-26T01:43:49.391Z,-1.20
2018-12-26T01:46:17.479Z,-1.20
2018-12-26T01:48:45.588Z,-1.20
2018-12-26T01:51:14.678Z,-1.20
2018-12-26T01:53:42.747Z,-1.20
2018-12-26T01:56:10.962Z,-1.20
2018-12-26T01:58:40.355Z,-1.20
2018-12-26T02:01:08.438Z,-1.20
2018-12-26T02:03:38.710Z,-1.20
2018-12-26T02:06:06.794Z,-1.20
2018-12-26T02:08:34.878Z,-1.10
2018-12-26T02:11:03.126Z,-1.10
2018-12-26T02:13:31.218Z,-1.10
2018-12-26T02:15:59.598Z,-1.10
2018-12-26T02:18:27.806Z,-1.10
2018-12-26T02:20:56.921Z,-1.10
2018-12-26T02:23:25.306Z,-1.20
2018-12-26T02:25:53.344Z,-1.10
2018-12-26T02:28:21.401Z,-1.10
2018-12-26T02:30:49.542Z,-1.10
2018-12-26T02:33:17.643Z,-1.10
2018-12-26T02:35:46.067Z,-1.20
2018-12-26T02:38:14.189Z,-1.20
2018-12-26T02:40:42.332Z,-1.20
2018-12-26T02:43:10.416Z,-1.20
2018-12-26T02:45:38.557Z,-1.20
2018-12-26T02:48:06.678Z,-1.20
2018-12-26T02:50:35.068Z,-1.10
2018-12-26T02:53:04.083Z,-1.20
2018-12-26T02:55:33.361Z,-1.20
2018-12-26T02:58:01.500Z,-1.30
2018-12-26T03:00:29.902Z,-1.30
2018-12-26T03:02:58.399Z,-1.30
2018-12-26T03:05:26.472Z,-1.30
2018-12-26T03:07:55.146Z,-1.30
2018-12-26T03:10:23.258Z,-1.30
2018-12-26T03:12:51.359Z,-1.20
2018-12-26T03:15:19.417Z,-1.20
2018-12-26T03:17:47.559Z,-1.20
2018-12-26T03:20:15.647Z,-1.20
2018-12-26T03:22:43.771Z,-1.20
2018-12-26T03:25:11.896Z,-1.20
2018-12-26T03:27:40.217Z,-1.20
2018-12-26T03:30:10.342Z,-1.20
2018-12-26T03:32:39.053Z,-1.20
2018-12-26T03:35:07.115Z,-1.20
2018-12-26T03:37:35.221Z,-1.30
2018-12-26T03:40:03.712Z,-1.20
2018-12-26T03:42:31.813Z,-1.30
2018-12-26T03:45:01.465Z,-1.30
2018-12-26T03:47:30.805Z,-1.30
2018-12-26T03:49:58.876Z,-1.30
2018-12-26T03:52:26.982Z,-1.30
2018-12-26T03:54:56.021Z,-1.40
2018-12-26T03:57:24.083Z,-1.40
2018-12-26T03:59:52.175Z,-1.30
2018-12-26T04:02:20.325Z,-1.30
2018-12-26T04:04:48.917Z,-1.30
2018-12-26T04:07:17.279Z,-1.30
2018-12-26T04:09:45.331Z,-1.40
2018-12-26T04:12:13.760Z,-1.30
2018-12-26T04:14:41.994Z,-1.30
2018-12-26T04:17:10.101Z,-1.40
2018-12-26T04:19:38.361Z,-1.30
2018-12-26T04:22:06.484Z,-1.30
2018-12-26T04:24:34.613Z,-1.40
2018-12-26T04:27:03.113Z,-1.40
2018-12-26T04:29:31.285Z,-1.50
2018-12-26T04:31:59.636Z,-1.50
2018-12-26T04:34:27.715Z,-1.40
2018-12-26T04:36:55.812Z,-1.40
2018-12-26T04:39:24.007Z,-1.40
2018-12-26T04:41:52.134Z,-1.40
2018-12-26T04:44:20.254Z,-1.40
2018-12-26T04:46:48.342Z,-1.40
2018-12-26T04:49:16.450Z,-1.40
2018-12-26T04:51:44.503Z,-1.40
2018-12-26T04:54:12.615Z,-1.40
2018-12-26T04:56:40.756Z,-1.40
2018-12-26T04:59:10.050Z,-1.40
2018-12-26T05:01:38.160Z,-1.40
2018-12-26T05:04:16.471Z,-1.40
2018-12-26T05:06:44.534Z,-1.40
2018-12-26T05:09:13.393Z,-1.40
2018-12-26T05:11:43.631Z,-1.40
2018-12-26T05:14:11.761Z,-1.40
2018-12-26T05:16:39.954Z,-1.40
2018-12-26T05:19:09.559Z,-1.40
2018-12-26T05:21:40.606Z,-1.40
2018-12-26T05:24:10.801Z,-1.40
2018-12-26T05:26:41.310Z,-1.40
2018-12-26T05:29:09.360Z,-1.40
2018-12-26T05:31:37.455Z,-1.40
2018-12-26T05:34:05.588Z,-1.40
2018-12-26T05:36:33.689Z,-1.40
2018-12-26T05:39:01.799Z,-1.40
2018-12-26T05:41:31.371Z,-1.50
2018-12-26T05:43:59.451Z,-1.50
2018-12-26T05:46:27.553Z,-1.50
2018-12-26T05:48:55.655Z,-1.50
2018-12-26T05:51:23.739Z,-1.60
2018-12-26T05:53:51.843Z,-1.60
2018-12-26T05:56:19.947Z,-1.70
2018-12-26T05:58:48.125Z,-1.80
2018-12-26T06:01:16.367Z,-1.80
2018-12-26T06:03:44.436Z,-1.80
2018-12-26T06:06:12.507Z,-1.80
2018-12-26T06:08:41.618Z,-1.80
2018-12-26T06:11:09.697Z,-1.80
2018-12-26T06:13:37.747Z,-1.80
2018-12-26T06:16:05.822Z,-1.80
2018-12-26T06:18:33.883Z,-1.80
2018-12-26T06:21:02.649Z,-1.80
2018-12-26T06:23:32.067Z,-1.80
2018-12-26T06:26:00.183Z,-1.80
2018-12-26T06:28:28.264Z,-1.80
2018-12-26T06:30:59.702Z,-1.80
2018-12-26T06:33:28.088Z,-1.90
2018-12-26T06:35:59.399Z,-1.80
2018-12-26T06:38:27.435Z,-1.80
2018-12-26T06:40:55.844Z,-1.80
2018-12-26T06:43:23.989Z,-1.70
2018-12-26T06:45:53.624Z,-1.70
2018-12-26T06:48:21.719Z,-1.70
2018-12-26T06:50:59.044Z,-1.70
2018-12-26T06:53:32.043Z,-1.70
2018-12-26T06:56:03.020Z,-1.80
2018-12-26T06:58:32.395Z,-1.80
2018-12-26T07:01:00.615Z,-1.80
2018-12-26T07:03:29.105Z,-1.80
2018-12-26T07:05:57.354Z,-1.90
2018-12-26T07:08:28.751Z,-1.90
2018-12-26T07:11:30.190Z,-2.00
2018-12-26T07:13:58.737Z,-1.90
2018-12-26T07:16:30.065Z,-1.90
2018-12-26T07:19:01.018Z,-1.90
2018-12-26T07:21:29.264Z,-1.90
2018-12-26T07:23:59.335Z,-1.90
2018-12-26T07:26:27.627Z,-2.10
2018-12-26T07:28:56.397Z,-1.90
2018-12-26T07:31:24.570Z,-1.80
2018-12-26T07:33:52.729Z,-1.80
2018-12-26T07:36:23.484Z,-1.80
2018-12-26T07:38:56.147Z,-1.70
2018-12-26T07:41:24.698Z,-1.80
2018-12-26T07:43:56.137Z,-1.70
2018-12-26T07:46:24.307Z,-1.70
2018-12-26T07:48:52.461Z,-1.70
2018-12-26T07:51:33.809Z,-1.70
2018-12-26T07:54:02.359Z,-1.60
2018-12-26T07:56:30.583Z,-1.60
2018-12-26T07:58:58.721Z,-1.60
2018-12-26T08:01:27.203Z,-1.60
2018-12-26T08:03:55.535Z,-1.70
2018-12-26T08:06:23.624Z,-1.60
2018-12-26T08:08:51.731Z,-1.60
2018-12-26T08:11:20.132Z,-1.60
2018-12-26T08:13:49.148Z,-1.50
2018-12-26T08:16:17.611Z,-1.40
2018-12-26T08:18:45.771Z,-1.30
2018-12-26T08:21:14.549Z,-1.30
2018-12-26T08:23:45.389Z,-1.40
2018-12-26T08:26:18.295Z,-1.40
2018-12-26T08:28:53.488Z,-1.30
2018-12-26T08:31:27.676Z,-1.30
2018-12-26T08:33:57.226Z,-1.20
2018-12-26T08:36:27.505Z,-1.10
2018-12-26T08:38:58.690Z,-1.10
2018-12-26T08:45:10.014Z,-1.00
2018-12-26T08:47:39.699Z,-0.90
2018-12-26T08:50:10.540Z,-0.80
2018-12-26T08:52:38.938Z,-0.70
2018-12-26T08:55:07.322Z,-0.60
2018-12-26T08:58:22.212Z,-0.60
2018-12-26T09:01:13.857Z,-0.50
2018-12-26T09:03:42.744Z,-0.50
2018-12-26T09:06:10.918Z,-0.40
2018-12-26T09:08:39.166Z,-0.40
2018-12-26T09:11:10.350Z,-0.30
2018-12-26T09:13:38.606Z,-0.30
2018-12-26T09:16:06.686Z,-0.40
2018-12-26T09:18:34.909Z,-0.20
2018-12-26T09:21:02.960Z,-0.10
2018-12-26T09:23:31.411Z,0.00
2018-12-26T09:26:03.942Z,0.00
2018-12-26T09:28:32.104Z,0.10
2018-12-26T09:31:04.412Z,0.20
2018-12-26T09:33:33.648Z,0.30
2018-12-26T09:36:01.778Z,0.40
2018-12-26T09:38:29.959Z,0.40
2018-12-26T09:41:01.123Z,0.50
2018-12-26T09:43:29.299Z,0.60
2018-12-26T09:45:57.308Z,0.60
2018-12-26T09:48:30.651Z,0.60
2018-12-26T09:50:58.776Z,0.70
2018-12-26T09:53:30.973Z,0.70
2018-12-26T09:55:59.661Z,0.70
2018-12-26T09:58:28.028Z,0.80
2018-12-26T10:00:56.159Z,0.80
2018-12-26T10:03:24.298Z,0.90
2018-12-26T10:05:52.643Z,0.90
2018-12-26T10:08:21.078Z,1.00
2018-12-26T10:10:50.325Z,1.00
2018-12-26T10:13:21.058Z,1.10
2018-12-26T10:15:49.174Z,1.10
2018-12-26T10:18:17.328Z,1.10
2018-12-26T10:20:45.509Z,1.10
2018-12-26T10:23:13.795Z,1.20
2018-12-26T10:25:41.911Z,1.20
2018-12-26T10:28:10.223Z,1.20
2018-12-26T10:30:38.404Z,1.20
2018-12-26T10:33:06.699Z,1.30
2018-12-26T10:35:34.772Z,1.40
2018-12-26T10:38:06.278Z,1.40
2018-12-26T10:40:34.492Z,1.50
2018-12-26T10:43:02.982Z,1.60
2018-12-26T10:45:31.155Z,1.70
2018-12-26T10:48:05.831Z,1.80
2018-12-26T10:50:34.017Z,1.90
2018-12-26T10:53:04.037Z,1.90
2018-12-26T10:55:32.130Z,2.00
2018-12-26T10:58:02.214Z,2.20
2018-12-26T11:00:31.560Z,2.30
2018-12-26T11:02:59.883Z,2.40
2018-12-26T11:05:29.643Z,2.40
2018-12-26T11:07:57.791Z,2.40
2018-12-26T11:10:26.121Z,2.50
2018-12-26T11:12:57.229Z,2.50
2018-12-26T11:15:25.449Z,2.60
2018-12-26T11:17:54.853Z,2.70
2018-12-26T11:20:25.021Z,2.70
2018-12-26T11:22:53.167Z,2.70
2018-12-26T11:25:22.725Z,2.80
2018-12-26T11:27:53.880Z,2.90
2018-12-26T11:30:22.035Z,3.00
2018-12-26T11:32:50.170Z,3.00
2018-12-26T11:35:19.575Z,3.00
2018-12-26T11:37:47.692Z,3.10
2018-12-26T11:40:18.892Z,3.20
2018-12-26T11:42:46.979Z,3.30
2018-12-26T11:45:29.903Z,3.30
2018-12-26T11:47:58.179Z,3.40
2018-12-26T11:50:28.278Z,3.50
2018-12-26T11:53:00.135Z,3.50
2018-12-26T11:55:28.171Z,3.60
2018-12-26T11:57:56.334Z,3.60
2018-12-26T12:00:24.417Z,3.60
2018-12-26T12:02:56.324Z,3.70
2018-12-26T12:05:27.771Z,3.70
2018-12-26T12:07:55.965Z,3.70
2018-12-26T12:10:24.623Z,3.70
2018-12-26T12:12:52.726Z,3.70
2018-12-26T12:15:20.839Z,3.70
2018-12-26T12:17:48.955Z,3.80
2018-12-26T12:20:17.170Z,3.90
2018-12-26T12:22:45.270Z,4.00
2018-12-26T12:25:13.413Z,4.00
2018-12-26T12:27:41.565Z,4.00
2018-12-26T12:30:09.698Z,4.10
2018-12-26T12:32:38.001Z,4.10
2018-12-26T12:35:06.686Z,4.20
2018-12-26T12:37:34.926Z,4.20
2018-12-26T12:40:03.055Z,4.30
2018-12-26T12:42:31.278Z,4.30
2018-12-26T12:44:59.371Z,4.50
2018-12-26T12:47:27.482Z,4.50
2018-12-26T12:49:56.074Z,4.50
2018-12-26T12:52:24.218Z,4.50
2018-12-26T12:54:55.176Z,4.40
2018-12-26T12:57:23.380Z,4.40
2018-12-26T12:59:52.871Z,4.30
2018-12-26T13:02:21.019Z,4.30
2018-12-26T13:04:49.172Z,4.30
2018-12-26T13:07:17.279Z,4.40
2018-12-26T13:09:45.419Z,4.50
2018-12-26T13:12:13.571Z,4.50
2018-12-26T13:14:42.552Z,4.50
2018-12-26T13:17:10.642Z,4.50
2018-12-26T13:19:38.787Z,4.50
2018-12-26T13:22:06.930Z,4.50
2018-12-26T13:24:36.145Z,4.50
2018-12-26T13:27:04.436Z,4.50
2018-12-26T13:29:32.866Z,4.60
2018-12-26T13:32:00.975Z,4.60
2018-12-26T13:34:29.780Z,4.70
2018-12-26T13:36:57.849Z,4.70
2018-12-26T13:39:25.990Z,4.80
2018-12-26T13:41:54.122Z,4.80
2018-12-26T13:44:22.336Z,4.80
2018-12-26T13:46:50.488Z,4.80
2018-12-26T13:49:18.587Z,4.80
2018-12-26T13:51:46.719Z,4.80
2018-12-26T13:54:14.793Z,4.70
2018-12-26T13:56:42.980Z,4.70
2018-12-26T13:59:11.105Z,4.80
2018-12-26T14:01:39.219Z,4.80
2018-12-26T14:04:07.332Z,4.80
2018-12-26T14:06:35.452Z,4.90
2018-12-26T14:09:04.411Z,4.90
2018-12-26T14:11:33.232Z,4.80
2018-12-26T14:14:07.347Z,4.90
2018-12-26T14:16:35.659Z,5.00
2018-12-26T14:19:03.826Z,4.90
2018-12-26T14:21:34.035Z,4.80
2018-12-26T14:24:02.192Z,4.80
2018-12-26T14:26:31.871Z,4.70
2018-12-26T14:29:00.066Z,4.70
2018-12-26T14:31:29.579Z,4.70
2018-12-26T14:33:57.919Z,4.60
2018-12-26T14:36:26.112Z,4.50
2018-12-26T14:38:54.231Z,4.50
2018-12-26T14:41:23.083Z,4.50
2018-12-26T14:43:52.232Z,4.50
2018-12-26T14:46:20.441Z,4.50
2018-12-26T14:48:48.575Z,4.50
2018-12-26T14:51:16.813Z,4.40
2018-12-26T14:53:44.896Z,4.40
2018-12-26T14:56:13.153Z,4.40
2018-12-26T14:58:41.339Z,4.30
2018-12-26T15:01:09.877Z,4.30
2018-12-26T15:03:39.019Z,4.20
2018-12-26T15:06:07.164Z,4.20
2018-12-26T15:08:35.277Z,4.10
2018-12-26T15:11:04.608Z,4.10
2018-12-26T15:13:32.950Z,4.00
2018-12-26T15:16:01.198Z,3.90
2018-12-26T15:18:29.254Z,3.80
2018-12-26T15:20:57.406Z,3.70
2018-12-26T15:23:25.575Z,3.60
2018-12-26T15:25:54.469Z,3.50
2018-12-26T15:28:22.612Z,3.40
2018-12-26T15:30:50.708Z,3.40
2018-12-26T15:33:18.794Z,3.30
2018-12-26T15:35:46.961Z,3.20
2018-12-26T15:38:16.329Z,3.10
2018-12-26T15:40:45.504Z,3.10
2018-12-26T15:43:13.629Z,3.10
2018-12-26T15:45:42.100Z,3.00
2018-12-26T15:48:10.201Z,3.00
2018-12-26T15:50:39.637Z,2.80
2018-12-26T15:53:08.102Z,2.70
2018-12-26T15:55:36.161Z,2.60
2018-12-26T15:58:05.355Z,2.60
2018-12-26T16:00:37.500Z,2.50
2018-12-26T16:03:05.255Z,2.50
2018-12-26T16:05:33.510Z,2.50
2018-12-26T16:08:03.712Z,2.50
2018-12-26T16:10:32.835Z,2.50
2018-12-26T16:13:00.993Z,2.50
2018-12-26T16:15:29.177Z,2.40
2018-12-26T16:17:57.398Z,2.40
2018-12-26T16:20:25.524Z,2.40
2018-12-26T16:22:53.651Z,2.30
2018-12-26T16:25:21.792Z,2.20
2018-12-26T16:27:50.153Z,2.10
2018-12-26T16:30:18.365Z,2.00
2018-12-26T16:32:46.448Z,1.90
2018-12-26T16:35:14.677Z,1.90
2018-12-26T16:37:42.800Z,1.80
2018-12-26T16:40:10.974Z,1.80
2018-12-26T16:42:39.105Z,1.80
2018-12-26T16:45:07.323Z,1.70
2018-12-26T16:47:35.393Z,1.70
2018-12-26T16:50:03.645Z,1.60
2018-12-26T16:52:32.550Z,1.60
2018-12-26T16:55:00.687Z,1.50
2018-12-26T16:57:28.876Z,1.50
2018-12-26T16:59:56.972Z,1.50
2018-12-26T17:02:25.446Z,1.40
2018-12-26T17:04:53.638Z,1.40
2018-12-26T17:07:21.797Z,1.40
2018-12-26T17:09:50.005Z,1.30
2018-12-26T17:12:18.145Z,1.20
2018-12-26T17:14:46.248Z,1.10
2018-12-26T17:17:14.442Z,1.10
2018-12-26T17:19:44.576Z,1.10
2018-12-26T17:22:13.806Z,1.10
2018-12-26T17:24:41.908Z,1.10
2018-12-26T17:27:10.096Z,1.00
2018-12-26T17:29:38.168Z,1.00
2018-12-26T17:32:06.959Z,0.90
2018-12-26T17:34:35.141Z,0.80
2018-12-26T17:37:03.335Z,0.70
2018-12-26T17:39:31.392Z,0.70
2018-12-26T17:41:59.527Z,0.70
2018-12-26T17:44:27.712Z,0.70
2018-12-26T17:46:59.342Z,0.80
2018-12-26T17:49:27.768Z,0.80
2018-12-26T17:51:55.987Z,0.80
2018-12-26T17:55:15.924Z,0.80
2018-12-26T17:57:50.829Z,0.80
2018-12-26T18:01:00.705Z,0.70
2018-12-26T18:03:29.228Z,0.70
2018-12-26T18:05:57.374Z,0.60
2018-12-26T18:08:25.498Z,0.60
2018-12-26T18:10:53.734Z,0.60
2018-12-26T18:13:21.856Z,0.60
2018-12-26T18:15:49.989Z,0.60
2018-12-26T18:18:18.231Z,0.50
2018-12-26T18:20:46.848Z,0.50
2018-12-26T18:23:14.948Z,0.50
2018-12-26T18:25:43.164Z,0.40
2018-12-26T18:28:11.274Z,0.40
2018-12-26T18:30:39.482Z,0.40
2018-12-26T18:33:07.907Z,0.40
2018-12-26T18:35:36.064Z,0.40
2018-12-26T18:38:04.155Z,0.40
2018-12-26T18:40:33.421Z,0.50
2018-12-26T18:43:01.689Z,0.50
2018-12-26T18:45:29.827Z,0.50
2018-12-26T18:47:58.262Z,0.50
2018-12-26T18:50:26.441Z,0.50
2018-12-26T18:52:54.593Z,0.40
2018-12-26T18:55:22.714Z,0.30
2018-12-26T18:57:50.930Z,0.20
2018-12-26T19:00:19.146Z,0.20
2018-12-26T19:02:47.417Z,0.10
2018-12-26T19:05:15.600Z,0.10
2018-12-26T19:07:44.314Z,0.20
2018-12-26T19:10:13.929Z,0.20
2018-12-26T19:12:47.018Z,0.20
2018-12-26T19:15:15.547Z,0.20
2018-12-26T19:17:47.613Z,0.20
2018-12-26T19:20:22.604Z,0.20
2018-12-26T19:22:54.407Z,0.20
2018-12-26T19:25:25.162Z,0.10
2018-12-26T19:27:53.296Z,0.10
2018-12-26T19:30:21.665Z,0.10
2018-12-26T19:32:55.800Z,0.10
2018-12-26T19:35:29.003Z,0.10
2018-12-26T19:38:22.788Z,0.10
2018-12-26T19:40:51.000Z,0.10
2018-12-26T19:43:20.045Z,0.10
2018-12-26T19:45:48.184Z,0.00
2018-12-26T19:48:17.296Z,0.00
2018-12-26T19:50:45.602Z,0.10
2018-12-26T19:53:17.414Z,0.00
2018-12-26T19:55:45.521Z,0.00
2018-12-26T19:58:29.429Z,0.00
2018-12-26T20:00:58.649Z,-0.10
2018-12-26T20:03:26.773Z,-0.10
2018-12-26T20:05:56.659Z,-0.10
2018-12-26T20:08:24.905Z,-0.10
2018-12-26T20:10:53.005Z,-0.20
2018-12-26T20:13:21.286Z,-0.20
2018-12-26T20:15:49.541Z,-0.20
2018-12-26T20:18:17.976Z,-0.20
2018-12-26T20:20:46.089Z,-0.10
2018-12-26T20:23:14.233Z,-0.20
2018-12-26T20:25:42.445Z,-0.20
2018-12-26T20:28:10.868Z,-0.10
2018-12-26T20:30:39.097Z,-0.10
2018-12-26T20:33:08.054Z,-0.10
2018-12-26T20:35:36.331Z,-0.10
2018-12-26T20:38:05.031Z,-0.20
2018-12-26T20:40:34.716Z,-0.20
2018-12-26T20:43:03.202Z,-0.30
2018-12-26T20:45:32.266Z,-0.30
2018-12-26T20:48:01.537Z,-0.30
2018-12-26T20:50:34.587Z,-0.30
2018-12-26T20:53:07.814Z,-0.30
2018-12-26T20:55:38.083Z,-0.30
2018-12-26T20:58:11.690Z,-0.30
2018-12-26T21:00:44.899Z,-0.30
2018-12-26T21:03:15.457Z,-0.40
2018-12-26T21:05:43.750Z,-0.40
2018-12-26T21:08:13.172Z,-0.50
2018-12-26T21:10:41.364Z,-0.50
2018-12-26T21:16:19.496Z,-0.50
2018-12-26T21:30:09.649Z,-0.60
2018-12-26T21:35:44.541Z,-0.40
2018-12-26T21:52:21.248Z,-0.30
2018-12-26T22:00:46.237Z,-0.40
2018-12-26T22:06:44.942Z,-0.40
2018-12-26T22:12:25.864Z,-0.40
2018-12-26T22:15:36.587Z,-0.40
2018-12-26T22:21:17.589Z,-0.40
2018-12-26T22:24:06.355Z,-0.40
2018-12-26T22:26:53.497Z,-0.50
2018-12-26T22:29:41.427Z,-0.40
2018-12-26T22:32:30.818Z,-0.40
2018-12-26T22:38:13.355Z,-0.40
2018-12-26T22:41:21.689Z,-0.40
2018-12-26T22:44:09.226Z,-0.30
2018-12-26T22:46:58.692Z,-0.30
2018-12-26T22:49:45.975Z,-0.30
2018-12-26T23:00:53.512Z,-0.30
2018-12-26T23:03:40.961Z,-0.20
2018-12-26T23:11:40.897Z,-0.10
2018-12-26T23:14:27.939Z,-0.10
2018-12-26T23:17:12.274Z,-0.10
2018-12-26T23:22:44.922Z,-0.10
2018-12-26T23:25:30.545Z,-0.10
2018-12-26T23:31:02.737Z,-0.30
2018-12-26T23:33:30.713Z,-0.20
2018-12-26T23:36:18.178Z,-0.30
2018-12-26T23:50:08.303Z,-0.10
2018-12-26T23:55:41.378Z,-0.10
